Flugplatz Eichstätt

Für EDPE sind keine METAR/TAF Berichte vorhanden.
Es werden die Flugwettermeldungen vom Flugplatz Neuburg Airport in 18 km Entfernung angezeigt.

Bericht für ETSN

vom 31.05. um 10:20 UTC

Wind 5 kt aus 60°

Sichtweite 10 km oder mehr

gering bewölkt in 5000 ft

aufgelockert bewölkt in 13000 ft

aufgebrochene Bewölkung in 24000 ft

Temperatur 17.0°C

Taupunkt 3.0°C

Luftfeuchtigkeit 39%

Luftdruck 1020 hPa

ETSN 311020Z 06005KT 9999 FEW050 SCT130 BKN240 17/03 Q1020 BLU+
Keine Prognose (TAF) verfügbar.
Impressum